createdAt,value
2022-11-17T00:01:21.767Z,98447.50
2022-11-17T00:03:49.445Z,98451.72
2022-11-17T00:06:17.618Z,98450.88
2022-11-17T00:08:44.188Z,98459.44
2022-11-17T00:11:10.754Z,98474.91
2022-11-17T00:13:55.969Z,98483.47
2022-11-17T00:16:22.753Z,98476.56
2022-11-17T00:19:07.853Z,98468.88
2022-11-17T00:21:34.777Z,98493.75
2022-11-17T00:24:01.354Z,98497.19
2022-11-17T00:26:30.550Z,98499.78
2022-11-17T00:29:02.128Z,98490.38
2022-11-17T00:31:48.779Z,98488.66
2022-11-17T00:34:23.305Z,98494.66
2022-11-17T00:36:51.902Z,98492.97
2022-11-17T00:39:20.738Z,98475.84
2022-11-17T00:41:47.663Z,98462.13
2022-11-17T00:44:14.854Z,98450.16
2022-11-17T00:46:42.144Z,98443.25
2022-11-17T00:49:10.715Z,98451.84
2022-11-17T00:51:38.030Z,98457.84
2022-11-17T00:54:06.181Z,98456.09
2022-11-17T00:56:32.775Z,98438.97
2022-11-17T00:58:59.795Z,98448.41
2022-11-17T01:01:26.563Z,98449.25
2022-11-17T01:04:03.306Z,98451.84
2022-11-17T01:06:33.016Z,98448.41
2022-11-17T01:09:06.212Z,98436.41
2022-11-17T01:11:32.850Z,98447.56
2022-11-17T01:14:00.756Z,98448.41
2022-11-17T01:16:29.097Z,98457.81
2022-11-17T01:18:55.786Z,98455.25
2022-11-17T01:21:26.747Z,98460.38
2022-11-17T01:23:55.560Z,98471.53
2022-11-17T01:26:24.980Z,98464.69
2022-11-17T01:28:52.543Z,98461.25
2022-11-17T01:31:25.240Z,98448.41
2022-11-17T01:33:52.383Z,98453.56
2022-11-17T01:36:31.360Z,98413.28
2022-11-17T01:38:57.880Z,98419.28
2022-11-17T01:41:27.331Z,98417.56
2022-11-17T01:43:59.679Z,98421.84
2022-11-17T01:46:33.548Z,98407.28
2022-11-17T01:49:11.209Z,98389.34
2022-11-17T01:51:42.302Z,98403.91
2022-11-17T01:54:11.357Z,98409.03
2022-11-17T01:56:44.442Z,98415.00
2022-11-17T01:59:17.863Z,98412.47
2022-11-17T02:01:55.895Z,98421.91
2022-11-17T02:04:30.439Z,98431.31
2022-11-17T02:07:16.897Z,98454.41
2022-11-17T02:09:43.948Z,98459.56
2022-11-17T02:12:13.246Z,98466.41
2022-11-17T02:14:40.686Z,98466.41
2022-11-17T02:17:14.032Z,98475.00
2022-11-17T02:19:43.311Z,98481.81
2022-11-17T02:22:48.280Z,98472.41
2022-11-17T02:25:49.607Z,98480.09
2022-11-17T02:28:25.978Z,98480.97
2022-11-17T02:30:59.014Z,98492.09
2022-11-17T02:33:38.772Z,98500.66
2022-11-17T02:36:28.665Z,98498.09
2022-11-17T02:38:59.610Z,98509.22
2022-11-17T02:41:43.222Z,98502.41
2022-11-17T02:44:28.750Z,98500.66
2022-11-17T02:47:10.045Z,98507.53
2022-11-17T02:49:41.632Z,98496.41
2022-11-17T02:52:09.187Z,98492.09
2022-11-17T02:54:35.860Z,98493.78
2022-11-17T02:57:02.376Z,98499.84
2022-11-17T02:59:37.283Z,98512.69
2022-11-17T03:02:25.222Z,98504.97
2022-11-17T03:05:04.460Z,98515.25
2022-11-17T03:08:15.368Z,98510.09
2022-11-17T03:10:59.846Z,98510.09
2022-11-17T03:13:40.400Z,98509.22
2022-11-17T03:16:13.272Z,98498.97
2022-11-17T03:18:45.510Z,98509.22
2022-11-17T03:21:23.119Z,98516.94
2022-11-17T03:23:58.789Z,98498.94
2022-11-17T03:26:32.441Z,98508.41
2022-11-17T03:29:01.908Z,98497.25
2022-11-17T03:31:31.317Z,98509.25
2022-11-17T03:33:58.953Z,98527.25
2022-11-17T03:36:39.664Z,98525.53
2022-11-17T03:39:13.341Z,98531.50
2022-11-17T03:41:44.775Z,98536.69
2022-11-17T03:44:15.148Z,98531.50
2022-11-17T03:46:43.919Z,98526.41
2022-11-17T03:49:57.001Z,98534.94
2022-11-17T03:52:25.206Z,98543.50
2022-11-17T03:54:53.041Z,98527.25
2022-11-17T03:58:13.155Z,98537.53
2022-11-17T04:00:41.933Z,98524.66
2022-11-17T04:03:08.478Z,98522.97
2022-11-17T04:05:34.972Z,98501.50
2022-11-17T04:08:01.482Z,98504.13
2022-11-17T04:10:28.207Z,98498.97
2022-11-17T04:13:13.565Z,98500.66
2022-11-17T04:15:59.352Z,98512.69
2022-11-17T04:18:27.028Z,98508.38
2022-11-17T04:20:56.807Z,98506.66
2022-11-17T04:23:24.755Z,98521.22
2022-11-17T04:26:12.420Z,98526.34
2022-11-17T04:28:48.973Z,98507.50
2022-11-17T04:31:22.657Z,98499.78
2022-11-17T04:33:53.470Z,98502.38
2022-11-17T04:36:22.708Z,98506.66
2022-11-17T04:38:51.337Z,98502.38
2022-11-17T04:41:38.374Z,98506.59
2022-11-17T04:44:06.344Z,98513.38
2022-11-17T04:46:34.621Z,98521.09
2022-11-17T04:49:01.909Z,98520.28
2022-11-17T04:51:29.847Z,98521.09
2022-11-17T04:53:57.090Z,98515.13
2022-11-17T04:56:24.755Z,98516.75
2022-11-17T04:58:51.371Z,98539.97
2022-11-17T05:01:19.426Z,98520.28
2022-11-17T05:03:53.163Z,98520.28
2022-11-17T05:06:25.218Z,98520.28
2022-11-17T05:08:55.914Z,98521.91
2022-11-17T05:11:42.801Z,98531.34
2022-11-17T05:14:09.827Z,98536.50
2022-11-17T05:16:54.884Z,98533.97
2022-11-17T05:19:23.756Z,98519.38
2022-11-17T05:21:50.773Z,98515.94
2022-11-17T05:24:18.070Z,98508.22
2022-11-17T05:26:46.841Z,98503.94
2022-11-17T05:29:15.562Z,98496.22
2022-11-17T05:31:43.956Z,98485.94
2022-11-17T05:34:15.185Z,98476.50
2022-11-17T05:36:41.935Z,98467.94
2022-11-17T05:39:09.478Z,98476.50
2022-11-17T05:41:37.238Z,98467.06
2022-11-17T05:44:04.832Z,98466.19
2022-11-17T05:46:31.376Z,98458.50
2022-11-17T05:48:58.296Z,98461.06
2022-11-17T05:51:25.495Z,98457.66
2022-11-17T05:53:52.468Z,98449.94
2022-11-17T05:56:49.711Z,98444.78
2022-11-17T05:59:28.458Z,98440.50
2022-11-17T06:02:03.861Z,98437.94
2022-11-17T06:04:31.130Z,98432.81
2022-11-17T06:06:59.475Z,98434.53
2022-11-17T06:09:28.755Z,98441.38
2022-11-17T06:11:56.195Z,98435.38
2022-11-17T06:14:25.229Z,98433.66
2022-11-17T06:16:56.520Z,98437.03
2022-11-17T06:19:30.463Z,98428.50
2022-11-17T06:22:11.590Z,98426.75
2022-11-17T06:24:39.892Z,98419.03
2022-11-17T06:27:06.629Z,98433.63
2022-11-17T06:29:33.202Z,98445.69
2022-11-17T06:32:00.305Z,98451.63
2022-11-17T06:34:27.774Z,98431.06
2022-11-17T06:36:55.938Z,98412.22
2022-11-17T06:39:22.401Z,98377.88
2022-11-17T06:41:48.938Z,98349.59
2022-11-17T06:44:15.419Z,98327.34
2022-11-17T06:46:47.626Z,98297.34
2022-11-17T06:49:15.447Z,98275.94
2022-11-17T06:51:45.144Z,98251.94
2022-11-17T06:54:14.495Z,98241.63
2022-11-17T06:56:41.346Z,98230.53
2022-11-17T06:59:07.917Z,98220.28
2022-11-17T07:01:34.516Z,98215.16
2022-11-17T07:04:01.033Z,98198.88
2022-11-17T07:06:27.564Z,98204.00
2022-11-17T07:08:54.286Z,98201.38
2022-11-17T07:11:20.943Z,98195.34
2022-11-17T07:13:47.483Z,98207.22
2022-11-17T07:16:22.925Z,98209.84
2022-11-17T07:18:51.587Z,98209.06
2022-11-17T07:21:18.499Z,98206.53
2022-11-17T07:23:45.925Z,98195.41
2022-11-17T07:26:13.014Z,98194.56
2022-11-17T07:28:39.633Z,98190.28
2022-11-17T07:31:08.259Z,98204.88
2022-11-17T07:33:35.279Z,98202.31
2022-11-17T07:36:06.599Z,98199.72
2022-11-17T07:38:34.777Z,98210.00
2022-11-17T07:41:02.619Z,98210.69
2022-11-17T07:43:29.846Z,98221.88
2022-11-17T07:45:57.021Z,98205.69
2022-11-17T07:48:23.564Z,98215.00
2022-11-17T07:50:50.292Z,98208.16
2022-11-17T07:53:16.924Z,98211.44
2022-11-17T07:55:43.500Z,98213.22
2022-11-17T07:58:10.108Z,98200.41
2022-11-17T08:00:36.848Z,98194.38
2022-11-17T08:03:04.929Z,98177.19
2022-11-17T08:05:41.825Z,98182.34
2022-11-17T08:08:10.271Z,98189.28
2022-11-17T08:10:36.960Z,98185.81
2022-11-17T08:13:03.923Z,98188.34
2022-11-17T08:15:31.749Z,98185.72
2022-11-17T08:18:01.217Z,98184.75
2022-11-17T08:20:29.466Z,98190.81
2022-11-17T08:22:56.811Z,98194.34
2022-11-17T08:25:26.389Z,98194.38
2022-11-17T08:27:57.940Z,98191.78
2022-11-17T08:30:26.325Z,98183.28
2022-11-17T08:32:54.542Z,98178.97
2022-11-17T08:35:23.651Z,98173.78
2022-11-17T08:37:50.322Z,98171.13
2022-11-17T08:40:18.316Z,98154.81
2022-11-17T08:42:45.411Z,98159.00
2022-11-17T08:45:12.655Z,98155.56
2022-11-17T08:47:39.260Z,98159.84
2022-11-17T08:50:06.763Z,98155.56
2022-11-17T08:52:33.761Z,98147.78
2022-11-17T08:55:00.645Z,98150.16
2022-11-17T08:57:29.907Z,98131.16
2022-11-17T08:59:56.627Z,98133.56
2022-11-17T09:02:23.279Z,98128.44
2022-11-17T09:04:50.629Z,98143.88
2022-11-17T09:07:17.833Z,98142.16
2022-11-17T09:09:46.178Z,98140.38
2022-11-17T09:12:12.784Z,98129.97
2022-11-17T09:14:39.500Z,98119.69
2022-11-17T09:17:06.366Z,98130.97
2022-11-17T09:19:33.724Z,98128.19
2022-11-17T09:22:00.273Z,98130.06
2022-11-17T09:24:26.971Z,98134.44
2022-11-17T09:26:54.730Z,98124.25
2022-11-17T09:29:21.790Z,98127.66
2022-11-17T09:31:48.371Z,98125.91
2022-11-17T09:34:15.524Z,98123.28
2022-11-17T09:36:42.333Z,98131.00
2022-11-17T09:39:09.088Z,98135.94
2022-11-17T09:41:46.761Z,98125.47
2022-11-17T09:44:31.165Z,98128.69
2022-11-17T09:47:16.513Z,98147.47
2022-11-17T09:49:58.647Z,98150.84
2022-11-17T09:52:32.425Z,98161.97
2022-11-17T09:55:07.802Z,98163.63
2022-11-17T09:57:41.178Z,98171.09
2022-11-17T10:00:10.903Z,98172.78
2022-11-17T10:02:37.531Z,98189.84
2022-11-17T10:05:04.338Z,98204.47
2022-11-17T10:07:34.996Z,98212.16
2022-11-17T10:10:03.571Z,98218.94
2022-11-17T10:12:41.786Z,98231.78
2022-11-17T10:15:24.325Z,98253.22
2022-11-17T10:17:50.933Z,98273.94
2022-11-17T10:20:20.924Z,98281.56
2022-11-17T10:22:48.188Z,98291.03
2022-11-17T10:25:23.957Z,98300.09
2022-11-17T10:27:54.102Z,98319.19
2022-11-17T10:30:24.308Z,98317.47
2022-11-17T10:32:52.056Z,98320.91
2022-11-17T10:35:19.917Z,98336.50
2022-11-17T10:37:55.439Z,98332.31
2022-11-17T10:40:26.171Z,98340.84
2022-11-17T10:43:04.962Z,98338.03
2022-11-17T10:45:32.535Z,98357.75
2022-11-17T10:48:32.912Z,98364.41
2022-11-17T10:51:11.184Z,98366.00
2022-11-17T10:53:45.546Z,98378.13
2022-11-17T10:56:21.665Z,98372.06
2022-11-17T10:59:09.628Z,98383.16
2022-11-17T11:01:39.161Z,98390.88
2022-11-17T11:04:08.053Z,98387.38
2022-11-17T11:06:35.610Z,98400.22
2022-11-17T11:09:10.521Z,98392.34
2022-11-17T11:11:41.538Z,98392.78
2022-11-17T11:14:33.471Z,98411.81
2022-11-17T11:17:10.615Z,98408.66
2022-11-17T11:19:37.950Z,98418.44
2022-11-17T11:22:33.872Z,98409.75
2022-11-17T11:25:12.530Z,98415.69
2022-11-17T11:27:47.955Z,98439.03
2022-11-17T11:30:19.389Z,98438.88
2022-11-17T11:33:01.201Z,98439.78
2022-11-17T11:35:34.626Z,98438.81
2022-11-17T11:38:23.391Z,98450.69
2022-11-17T11:41:07.578Z,98442.78
2022-11-17T11:43:59.969Z,98456.97
2022-11-17T11:46:55.725Z,98476.06
2022-11-17T11:49:22.195Z,98499.72
2022-11-17T11:51:50.409Z,98504.44
2022-11-17T11:54:30.878Z,98503.56
2022-11-17T11:56:57.674Z,98495.84
2022-11-17T11:59:50.722Z,98503.50
2022-11-17T12:02:43.544Z,98503.38
2022-11-17T12:05:19.229Z,98521.66
2022-11-17T12:08:11.077Z,98529.22
2022-11-17T12:11:31.422Z,98527.63
2022-11-17T12:13:59.684Z,98537.19
2022-11-17T12:16:36.161Z,98549.28
2022-11-17T12:19:23.088Z,98547.31
2022-11-17T12:21:55.379Z,98530.09
2022-11-17T12:24:33.500Z,98544.75
2022-11-17T12:27:34.896Z,98543.00
2022-11-17T12:30:04.293Z,98550.63
2022-11-17T12:32:49.141Z,98550.66
2022-11-17T12:35:33.635Z,98552.44
2022-11-17T12:38:23.501Z,98549.09
2022-11-17T12:40:51.982Z,98538.56
2022-11-17T12:43:25.353Z,98517.78
2022-11-17T12:46:25.383Z,98526.50
2022-11-17T12:49:03.237Z,98523.28
2022-11-17T12:51:56.347Z,98524.72
2022-11-17T12:54:47.845Z,98528.34
2022-11-17T12:57:26.399Z,98517.16
2022-11-17T13:00:23.175Z,98512.72
2022-11-17T13:03:15.348Z,98516.28
2022-11-17T13:05:42.316Z,98517.94
2022-11-17T13:08:22.183Z,98526.69
2022-11-17T13:10:49.346Z,98515.25
2022-11-17T13:13:23.592Z,98521.13
2022-11-17T13:15:57.092Z,98521.00
2022-11-17T13:18:36.457Z,98520.16
2022-11-17T13:21:04.055Z,98515.78
2022-11-17T13:23:32.878Z,98515.88
2022-11-17T13:26:20.020Z,98526.91
2022-11-17T13:28:47.770Z,98523.53
2022-11-17T13:31:24.080Z,98520.16
2022-11-17T13:34:04.588Z,98516.72
2022-11-17T13:36:31.189Z,98514.97
2022-11-17T13:39:00.520Z,98519.97
2022-11-17T13:41:38.236Z,98516.66
2022-11-17T13:44:08.553Z,98513.16
2022-11-17T13:46:36.170Z,98510.63
2022-11-17T13:49:35.703Z,98517.56
2022-11-17T13:52:03.786Z,98505.56
2022-11-17T13:54:30.751Z,98499.41
2022-11-17T13:57:06.122Z,98489.97
2022-11-17T13:59:35.299Z,98482.44
2022-11-17T14:02:17.316Z,98481.41
2022-11-17T14:05:14.214Z,98475.41
2022-11-17T14:07:42.564Z,98482.28
2022-11-17T14:10:12.930Z,98480.56
2022-11-17T14:12:39.668Z,98482.16
2022-11-17T14:15:24.523Z,98470.81
2022-11-17T14:17:53.356Z,98468.22
2022-11-17T14:20:25.883Z,98469.94
2022-11-17T14:23:10.461Z,98475.09
2022-11-17T14:25:41.159Z,98481.88
2022-11-17T14:28:15.805Z,98473.31
2022-11-17T14:30:42.454Z,98473.34
2022-11-17T14:33:13.347Z,98472.31
2022-11-17T14:35:40.700Z,98472.19
2022-11-17T14:38:10.496Z,98476.47
2022-11-17T14:40:37.045Z,98481.72
2022-11-17T14:43:03.576Z,98480.84
2022-11-17T14:45:30.792Z,98486.81
2022-11-17T14:47:57.347Z,98486.13
2022-11-17T14:50:23.848Z,98488.03
2022-11-17T14:52:50.413Z,98499.25
2022-11-17T14:55:17.100Z,98490.66
2022-11-17T14:57:43.786Z,98491.44
2022-11-17T15:00:15.829Z,98497.56
2022-11-17T15:02:45.941Z,98503.59
2022-11-17T15:05:12.887Z,98501.78
2022-11-17T15:07:39.515Z,98500.09
2022-11-17T15:10:07.257Z,98499.31
2022-11-17T15:12:34.317Z,98497.63
2022-11-17T15:15:00.820Z,98502.66
2022-11-17T15:17:28.034Z,98493.97
2022-11-17T15:19:55.222Z,98474.31
2022-11-17T15:22:21.767Z,98478.78
2022-11-17T15:24:48.306Z,98482.38
2022-11-17T15:27:15.277Z,98487.59
2022-11-17T15:29:41.966Z,98492.81
2022-11-17T15:32:08.491Z,98488.66
2022-11-17T15:34:38.052Z,98491.22
2022-11-17T15:37:05.456Z,98499.94
2022-11-17T15:39:31.957Z,98500.78
2022-11-17T15:41:58.509Z,98500.75
2022-11-17T15:44:25.114Z,98503.34
2022-11-17T15:46:51.974Z,98499.16
2022-11-17T15:49:18.940Z,98500.00
2022-11-17T15:51:45.676Z,98491.44
2022-11-17T15:54:19.639Z,98481.13
2022-11-17T15:56:47.369Z,98492.41
2022-11-17T15:59:14.603Z,98480.31
2022-11-17T16:01:41.691Z,98488.97
2022-11-17T16:04:10.706Z,98503.63
2022-11-17T16:06:39.299Z,98515.63
2022-11-17T16:09:09.203Z,98519.13
2022-11-17T16:11:36.587Z,98520.09
2022-11-17T16:14:04.200Z,98514.94
2022-11-17T16:16:33.240Z,98513.22
2022-11-17T16:19:00.044Z,98530.50
2022-11-17T16:21:27.057Z,98531.44
2022-11-17T16:23:56.442Z,98528.88
2022-11-17T16:26:26.177Z,98529.88
2022-11-17T16:28:57.335Z,98535.16
2022-11-17T16:31:25.607Z,98555.09
2022-11-17T16:33:55.851Z,98571.63
2022-11-17T16:36:24.630Z,98551.25
2022-11-17T16:39:01.964Z,98482.84
2022-11-17T16:41:32.390Z,98462.25
2022-11-17T16:43:59.804Z,98431.44
2022-11-17T16:46:29.208Z,98374.88
2022-11-17T16:48:57.050Z,98333.75
2022-11-17T16:51:23.710Z,98304.72
2022-11-17T16:53:58.499Z,98297.94
2022-11-17T16:56:25.216Z,98281.66
2022-11-17T16:58:52.245Z,98266.25
2022-11-17T17:01:21.698Z,98232.81
2022-11-17T17:03:48.275Z,98197.66
2022-11-17T17:06:17.604Z,98171.03
2022-11-17T17:08:44.818Z,98149.56
2022-11-17T17:11:15.878Z,98129.91
2022-11-17T17:13:42.755Z,98114.47
2022-11-17T17:16:13.799Z,98107.63
2022-11-17T17:18:41.112Z,98111.06
2022-11-17T17:21:12.915Z,98099.88
2022-11-17T17:23:39.407Z,98066.47
2022-11-17T17:26:16.655Z,98069.94
2022-11-17T17:28:47.326Z,98071.66
2022-11-17T17:31:21.076Z,98057.13
2022-11-17T17:33:50.645Z,98070.00
2022-11-17T17:36:20.260Z,98079.38
2022-11-17T17:38:53.293Z,98070.06
2022-11-17T17:41:23.367Z,98058.00
2022-11-17T17:43:56.451Z,98045.13
2022-11-17T17:46:22.947Z,98065.84
2022-11-17T17:48:49.559Z,98077.84
2022-11-17T17:51:23.832Z,98088.13
2022-11-17T17:53:51.476Z,98087.25
2022-11-17T17:56:20.318Z,98083.75
2022-11-17T17:58:48.865Z,98076.97
2022-11-17T18:01:15.372Z,98094.91
2022-11-17T18:03:45.680Z,98098.34
2022-11-17T18:06:13.321Z,98089.81
2022-11-17T18:08:39.961Z,98097.53
2022-11-17T18:11:09.945Z,98099.31
2022-11-17T18:13:38.972Z,98105.28
2022-11-17T18:16:10.544Z,98110.41
2022-11-17T18:18:37.775Z,98113.78
2022-11-17T18:21:15.134Z,98120.72
2022-11-17T18:23:44.718Z,98128.41
2022-11-17T18:26:23.320Z,98134.41
2022-11-17T18:28:55.356Z,98138.69
2022-11-17T18:31:24.145Z,98140.47
2022-11-17T18:33:52.557Z,98144.69
2022-11-17T18:36:20.199Z,98146.44
2022-11-17T18:38:47.613Z,98149.75
2022-11-17T18:41:16.526Z,98162.66
2022-11-17T18:43:44.126Z,98170.41
2022-11-17T18:46:16.171Z,98183.19
2022-11-17T18:48:44.427Z,98185.03
2022-11-17T18:51:21.429Z,98188.53
2022-11-17T18:53:53.172Z,98187.63
2022-11-17T18:56:28.635Z,98193.59
2022-11-17T18:58:55.378Z,98190.28
2022-11-17T19:01:24.080Z,98207.50
2022-11-17T19:03:53.540Z,98209.78
2022-11-17T19:06:22.752Z,98233.75
2022-11-17T19:08:50.174Z,98231.19
2022-11-17T19:11:18.216Z,98233.94
2022-11-17T19:13:45.856Z,98248.94
2022-11-17T19:16:24.285Z,98298.41
2022-11-17T19:18:53.479Z,98301.94
2022-11-17T19:21:26.067Z,98304.47
2022-11-17T19:23:54.655Z,98321.63
2022-11-17T19:26:29.989Z,98331.94
2022-11-17T19:28:58.182Z,98350.78
2022-11-17T19:31:25.571Z,98367.13
2022-11-17T19:33:53.160Z,98379.09
2022-11-17T19:36:25.063Z,98381.69
2022-11-17T19:38:53.574Z,98400.53
2022-11-17T19:41:26.802Z,98399.66
2022-11-17T19:43:58.105Z,98397.97
2022-11-17T19:46:26.422Z,98401.38
2022-11-17T19:48:53.084Z,98404.81
2022-11-17T19:51:25.132Z,98461.25
2022-11-17T19:53:54.201Z,98474.97
2022-11-17T19:56:22.203Z,98480.13
2022-11-17T19:58:50.325Z,98465.56
2022-11-17T20:01:20.412Z,98446.72
2022-11-17T20:03:47.645Z,98439.06
2022-11-17T20:06:17.264Z,98434.78
2022-11-17T20:08:44.223Z,98437.31
2022-11-17T20:11:16.740Z,98462.97
2022-11-17T20:13:44.090Z,98473.25
2022-11-17T20:16:16.477Z,98480.13
2022-11-17T20:18:44.715Z,98504.13
2022-11-17T20:21:14.034Z,98510.97
2022-11-17T20:23:41.992Z,98522.09
2022-11-17T20:26:12.706Z,98531.53
2022-11-17T20:28:39.378Z,98534.97
2022-11-17T20:31:13.507Z,98512.69
2022-11-17T20:33:41.556Z,98508.38
2022-11-17T20:36:10.906Z,98498.97
2022-11-17T20:38:37.616Z,98489.56
2022-11-17T20:41:04.978Z,98489.53
2022-11-17T20:43:32.567Z,98500.69
2022-11-17T20:45:59.232Z,98464.69
2022-11-17T20:48:27.455Z,98445.91
2022-11-17T20:51:01.525Z,98437.34
2022-11-17T20:53:28.921Z,98415.94
2022-11-17T20:55:57.610Z,98427.91
2022-11-17T20:58:25.299Z,98420.22
2022-11-17T21:00:52.738Z,98421.91
2022-11-17T21:03:20.426Z,98432.19
2022-11-17T21:05:59.199Z,98433.91
2022-11-17T21:08:37.322Z,98453.59
2022-11-17T21:11:09.239Z,98447.59
2022-11-17T21:13:37.226Z,98455.28
2022-11-17T21:16:14.957Z,98473.25
2022-11-17T21:18:48.500Z,98466.44
2022-11-17T21:21:15.723Z,98488.66
2022-11-17T21:23:43.997Z,98476.69
2022-11-17T21:26:13.066Z,98493.75
2022-11-17T21:28:41.053Z,98496.34
2022-11-17T21:31:14.381Z,98484.38
2022-11-17T21:33:41.698Z,98487.75
2022-11-17T21:36:16.402Z,98480.94
2022-11-17T21:38:44.877Z,98484.34
2022-11-17T21:41:16.271Z,98473.25
2022-11-17T21:43:44.090Z,98472.41
2022-11-17T21:46:14.665Z,98477.53
2022-11-17T21:48:41.942Z,98474.09
2022-11-17T21:51:15.906Z,98487.75
2022-11-17T21:53:43.186Z,98491.19
2022-11-17T21:56:10.240Z,98485.19
2022-11-17T21:58:37.231Z,98482.66
2022-11-17T22:01:12.950Z,98479.19
2022-11-17T22:03:41.183Z,98479.22
2022-11-17T22:06:14.488Z,98478.31
2022-11-17T22:08:43.044Z,98465.50
2022-11-17T22:11:13.254Z,98470.66
2022-11-17T22:13:40.631Z,98472.38
2022-11-17T22:16:13.469Z,98480.94
2022-11-17T22:18:41.034Z,98494.53
2022-11-17T22:21:08.274Z,98492.00
2022-11-17T22:23:35.473Z,98509.09
2022-11-17T22:26:04.594Z,98521.06
2022-11-17T22:28:31.359Z,98519.28
2022-11-17T22:30:58.508Z,98500.59
2022-11-17T22:33:25.382Z,98524.50
2022-11-17T22:35:52.111Z,98521.09
2022-11-17T22:38:18.801Z,98514.25
2022-11-17T22:40:45.311Z,98527.06
2022-11-17T22:43:15.417Z,98532.19
2022-11-17T22:45:42.573Z,98524.50
2022-11-17T22:48:09.402Z,98545.00
2022-11-17T22:50:36.370Z,98541.59
2022-11-17T22:53:03.352Z,98542.50
2022-11-17T22:55:32.736Z,98549.28
2022-11-17T22:57:59.485Z,98550.16
2022-11-17T23:00:26.347Z,98553.56
2022-11-17T23:02:52.870Z,98550.09
2022-11-17T23:05:19.585Z,98549.28
2022-11-17T23:07:46.294Z,98547.63
2022-11-17T23:10:13.316Z,98554.47
2022-11-17T23:12:40.382Z,98557.03
2022-11-17T23:15:07.969Z,98564.72
2022-11-17T23:17:34.856Z,98571.56
2022-11-17T23:20:01.971Z,98580.94
2022-11-17T23:22:28.539Z,98576.72
2022-11-17T23:24:55.075Z,98585.25
2022-11-17T23:27:21.535Z,98591.22
2022-11-17T23:29:48.116Z,98596.34
2022-11-17T23:32:14.669Z,98591.22
2022-11-17T23:34:41.296Z,98597.22
2022-11-17T23:37:07.886Z,98585.25
2022-11-17T23:39:34.432Z,98574.06
2022-11-17T23:42:01.143Z,98574.94
2022-11-17T23:44:28.268Z,98574.06
2022-11-17T23:46:54.815Z,98570.63
2022-11-17T23:49:21.415Z,98568.81
2022-11-17T23:51:47.977Z,98579.22
2022-11-17T23:54:14.667Z,98578.25
2022-11-17T23:56:41.291Z,98575.81
2022-11-17T23:59:08.360Z,98588.72
